OMAA Airport Information

Runway Information
Runway 13L Length 13452 ft width 197 ft
Elevation 62 ft Threshold 0 ft Heading 128
Runway 31R Length 13452 ft Width 197 ft
Elevation 72 ft Threshold 0 ft Heading 308
Runway 13R Length 13452 ft width 148 ft
Elevation 82 ft Threshold 0 ft Heading 128
Runway 31L Length 13452 ft Width 148 ft
Elevation 88 ft Threshold 0 ft Heading 308
Airport Frequencies
Type APP Name RDR Frequency 124.4 MHZ
Type ATIS Name ATIS Frequency 125.1 MHZ
Type TWR Name TWR Frequency 119.2 MHZ
Airport Navaids
Type VOR-DME Name Abu Dhabi Frequency 113000 KHZ
Airport Weather Information & NOTAM
ADDS - METARS form results

(2047 UTC 22 February 2018)
 
METAR text: OMAA 222000Z 10006KT CAVOK 22/17 Q1010 NOSIG
Conditions at: OMAA (ABU DHABI INTL , AE) observed 2000 UTC 22 February 2018
Temperature: 22.0°C (72°F)
Dewpoint: 17.0°C (63°F) [RH = 73%]
Pressure (altimeter): 29.82 inches Hg (1010.0 mb)
Winds: from the E (100 degrees) at 7 MPH (6 knots; 3.1 m/s)
Visibility: 6 or more miles (10+ km)
Ceiling: ceiling and visibility are OK
Clouds: unknown
Weather: no significant weather observed at this time